Time;durP1;ratioP1;P1;durP2;ratioP2;P2;SDS_P1;SDS_P2;PMS_P1;PMS_P2;Temp;Humidity;BMP_temperature;BMP_pressure;BME280_temperature;BME280_humidity;BME280_pressure;Samples;Min_cycle;Max_cycle;Signal;HPM_P1;HPM_P2
2023/12/18 00:00:17;;;;;;;15.67;10.60;;;8.50;99.90;;;;;;5006232;28;20488;-61
2023/12/18 00:02:45;;;;;;;16.10;10.80;;;8.50;99.90;;;;;;5007929;28;20472;-61
2023/12/18 00:05:13;;;;;;;17.03;11.80;;;8.50;99.90;;;;;;5007391;28;20486;-61
2023/12/18 00:07:41;;;;;;;16.40;11.63;;;8.50;99.90;;;;;;5007953;28;20480;-61
2023/12/18 00:10:10;;;;;;;14.70;10.50;;;8.50;99.90;;;;;;5007155;28;20464;-61
2023/12/18 00:12:38;;;;;;;17.03;10.70;;;8.40;99.90;;;;;;5003941;28;20550;-61
2023/12/18 00:15:08;;;;;;;18.20;11.20;;;8.40;99.90;;;;;;5002889;28;21111;-61
2023/12/18 00:17:36;;;;;;;20.50;11.40;;;8.40;99.90;;;;;;5007726;28;20468;-60
2023/12/18 00:20:05;;;;;;;14.50;11.03;;;8.40;99.90;;;;;;5008297;28;20859;-63
2023/12/18 00:22:33;;;;;;;14.23;11.13;;;8.40;99.90;;;;;;5006238;28;20500;-60
2023/12/18 00:25:01;;;;;;;18.93;11.40;;;8.30;99.90;;;;;;5004804;28;21085;-61
2023/12/18 00:27:29;;;;;;;18.87;11.73;;;8.30;99.90;;;;;;5006780;28;20500;-61
2023/12/18 00:29:58;;;;;;;17.87;12.40;;;8.40;99.90;;;;;;5004336;28;23937;-61
2023/12/18 00:32:27;;;;;;;16.00;10.83;;;8.30;99.90;;;;;;5007140;28;20885;-61
2023/12/18 00:34:55;;;;;;;18.10;11.30;;;8.30;99.90;;;;;;5004192;28;20491;-60
2023/12/18 00:37:23;;;;;;;15.20;11.40;;;8.30;99.90;;;;;;5007043;28;20526;-61
2023/12/18 00:39:51;;;;;;;14.20;11.23;;;8.30;99.90;;;;;;5006049;28;20808;-62
2023/12/18 00:42:19;;;;;;;16.40;12.00;;;8.30;99.90;;;;;;5001229;28;20472;-63
2023/12/18 00:44:47;;;;;;;17.40;11.70;;;8.30;99.90;;;;;;5007055;28;21028;-62
2023/12/18 00:47:15;;;;;;;16.80;12.20;;;8.30;99.90;;;;;;5003796;28;20563;-62
2023/12/18 00:49:44;;;;;;;18.70;12.30;;;8.30;99.90;;;;;;5004152;28;20570;-61
2023/12/18 00:52:12;;;;;;;19.63;12.87;;;8.30;99.90;;;;;;5006811;28;21859;-63
2023/12/18 00:54:41;;;;;;;15.63;11.80;;;8.30;99.90;;;;;;5005732;28;20575;-62
2023/12/18 00:57:09;;;;;;;15.33;11.50;;;8.30;99.90;;;;;;5005713;28;20571;-62
2023/12/18 00:59:37;;;;;;;15.67;11.77;;;8.30;99.90;;;;;;5005903;28;20852;-63
2023/12/18 01:02:05;;;;;;;15.70;11.97;;;8.30;99.90;;;;;;5005280;28;20471;-62
2023/12/18 01:04:33;;;;;;;20.57;11.80;;;8.30;99.90;;;;;;5004719;28;20516;-62
2023/12/18 01:07:03;;;;;;;18.10;11.73;;;8.30;99.90;;;;;;5006762;28;20484;-62
2023/12/18 01:09:31;;;;;;;14.47;11.10;;;8.40;99.90;;;;;;5005363;28;20594;-61
2023/12/18 01:11:59;;;;;;;17.60;11.30;;;8.30;99.90;;;;;;5006260;28;20490;-63
2023/12/18 01:14:27;;;;;;;21.27;13.23;;;8.30;99.90;;;;;;5004314;28;20479;-62
2023/12/18 01:16:55;;;;;;;24.10;12.73;;;8.30;99.90;;;;;;5006303;28;21070;-60
2023/12/18 01:19:23;;;;;;;17.47;11.90;;;8.30;99.90;;;;;;5005134;28;20552;-62
2023/12/18 01:21:51;;;;;;;15.63;11.00;;;8.30;99.90;;;;;;5007604;28;20476;-62
2023/12/18 01:24:20;;;;;;;17.60;11.90;;;8.30;99.90;;;;;;5005010;28;20508;-61
2023/12/18 01:26:48;;;;;;;17.03;11.37;;;8.30;99.90;;;;;;5004162;28;20493;-63
2023/12/18 01:29:16;;;;;;;24.03;11.80;;;8.30;99.90;;;;;;5005565;28;20484;-62
2023/12/18 01:31:44;;;;;;;19.53;11.57;;;8.30;99.90;;;;;;5003513;28;20496;-62
2023/12/18 01:34:12;;;;;;;18.20;11.33;;;8.30;99.90;;;;;;5004925;28;20482;-62
2023/12/18 01:36:41;;;;;;;21.83;12.20;;;8.30;99.90;;;;;;5002886;28;20488;-60
2023/12/18 01:39:09;;;;;;;26.33;12.30;;;8.30;99.90;;;;;;5005283;28;20530;-63
2023/12/18 01:41:38;;;;;;;24.07;12.50;;;8.30;99.90;;;;;;5005679;28;20853;-62
2023/12/18 01:44:06;;;;;;;17.00;12.10;;;8.30;99.90;;;;;;5003404;28;20571;-63
2023/12/18 01:46:36;;;;;;;16.60;12.03;;;8.40;99.90;;;;;;5005667;28;21044;-62
2023/12/18 01:49:05;;;;;;;19.60;12.20;;;8.40;99.90;;;;;;5003409;28;20554;-63
2023/12/18 01:51:33;;;;;;;17.20;12.03;;;8.30;99.90;;;;;;5006772;28;20468;-63
2023/12/18 01:54:01;;;;;;;14.27;11.93;;;8.40;99.90;;;;;;5002445;28;20974;-62
2023/12/18 01:56:31;;;;;;;15.43;11.50;;;8.40;99.90;;;;;;5001288;28;20617;-62
2023/12/18 01:59:02;;;;;;;19.70;12.37;;;8.40;99.90;;;;;;5004570;28;20506;-62
2023/12/18 02:01:31;;;;;;;17.33;11.10;;;8.30;99.90;;;;;;5005237;28;20572;-62
2023/12/18 02:03:59;;;;;;;16.90;11.10;;;8.40;99.90;;;;;;5001756;28;20485;-62
2023/12/18 02:06:28;;;;;;;16.03;11.17;;;8.30;99.90;;;;;;5002349;28;21311;-62
2023/12/18 02:08:57;;;;;;;19.03;12.10;;;8.40;99.90;;;;;;5005779;28;20483;-61
2023/12/18 02:11:25;;;;;;;19.00;11.70;;;8.30;99.90;;;;;;5002940;28;20468;-62
2023/12/18 02:13:53;;;;;;;20.90;12.00;;;8.40;99.90;;;;;;5004145;28;20484;-62
2023/12/18 02:16:23;;;;;;;19.37;11.90;;;8.40;99.90;;;;;;5005215;28;20481;-62
2023/12/18 02:18:51;;;;;;;17.43;11.50;;;8.40;99.90;;;;;;5002848;28;20563;-62
2023/12/18 02:21:20;;;;;;;17.33;11.70;;;8.40;99.90;;;;;;5005723;28;20845;-62
2023/12/18 02:23:50;;;;;;;20.30;12.50;;;8.40;99.90;;;;;;5004589;28;20476;-62
2023/12/18 02:26:18;;;;;;;17.30;12.97;;;8.30;99.90;;;;;;5002858;28;20523;-62
2023/12/18 02:28:46;;;;;;;20.60;13.10;;;8.30;99.90;;;;;;5003746;28;20508;-62
2023/12/18 02:31:16;;;;;;;20.53;13.30;;;8.30;99.90;;;;;;5005705;28;20954;-62
2023/12/18 02:33:48;;;;;;;25.23;13.53;;;8.20;99.90;;;;;;5001062;28;20486;-62
2023/12/18 02:36:17;;;;;;;15.70;12.93;;;8.20;99.90;;;;;;5003928;28;20496;-62
2023/12/18 02:38:45;;;;;;;18.83;12.87;;;8.20;99.90;;;;;;4999382;28;20479;-62
2023/12/18 02:41:14;;;;;;;18.13;13.97;;;8.20;99.90;;;;;;5005194;28;20476;-62
2023/12/18 02:43:42;;;;;;;19.70;13.10;;;8.10;99.90;;;;;;5002174;28;20559;-62
2023/12/18 02:46:10;;;;;;;17.70;13.50;;;8.10;99.90;;;;;;5002978;28;20969;-61
2023/12/18 02:48:39;;;;;;;19.07;13.50;;;8.10;99.90;;;;;;5000899;28;20468;-62
2023/12/18 02:51:07;;;;;;;21.87;13.30;;;8.10;99.90;;;;;;4999201;28;20475;-62
2023/12/18 02:53:36;;;;;;;17.30;13.60;;;8.10;99.90;;;;;;5002169;28;21033;-62
2023/12/18 02:56:04;;;;;;;19.10;13.50;;;8.10;99.90;;;;;;5005367;28;20492;-62
2023/12/18 02:58:34;;;;;;;18.10;13.60;;;8.10;99.90;;;;;;5005358;28;20468;-62
2023/12/18 03:01:02;;;;;;;22.57;13.50;;;8.20;99.90;;;;;;5007809;28;20530;-62
2023/12/18 03:03:30;;;;;;;19.53;12.77;;;8.10;99.90;;;;;;5006000;28;20546;-63
2023/12/18 03:05:58;;;;;;;21.73;14.23;;;8.20;99.90;;;;;;5008100;28;20496;-62
2023/12/18 03:08:26;;;;;;;17.73;13.10;;;8.20;99.90;;;;;;5007381;28;21040;-62
2023/12/18 03:10:54;;;;;;;21.13;13.93;;;8.20;99.90;;;;;;5008901;28;20472;-62
2023/12/18 03:13:22;;;;;;;18.70;13.77;;;8.20;99.90;;;;;;5004890;28;20476;-61
2023/12/18 03:15:52;;;;;;;16.93;12.73;;;8.20;99.90;;;;;;5008243;28;20542;-62
2023/12/18 03:18:20;;;;;;;18.53;14.47;;;8.20;99.90;;;;;;5006869;28;20532;-61
2023/12/18 03:20:48;;;;;;;24.40;14.67;;;8.10;99.90;;;;;;4998725;28;20537;-62
2023/12/18 03:23:16;;;;;;;17.10;13.60;;;8.10;99.90;;;;;;5006579;28;20910;-61
2023/12/18 03:25:44;;;;;;;19.07;13.70;;;8.20;99.90;;;;;;5008265;28;20528;-62
2023/12/18 03:28:13;;;;;;;15.47;13.00;;;8.20;99.90;;;;;;5009161;28;20510;-62
2023/12/18 03:30:41;;;;;;;21.90;14.20;;;8.20;99.90;;;;;;5005943;28;20473;-62
2023/12/18 03:33:11;;;;;;;18.77;14.23;;;8.20;99.90;;;;;;5007648;28;20472;-61
2023/12/18 03:35:39;;;;;;;25.77;15.53;;;8.20;99.90;;;;;;5002998;28;20491;-62
2023/12/18 03:38:06;;;;;;;22.57;13.93;;;8.20;99.90;;;;;;5006289;28;20563;-62
2023/12/18 03:40:34;;;;;;;20.80;14.10;;;8.20;99.90;;;;;;5006750;28;20589;-62
2023/12/18 03:43:02;;;;;;;21.70;14.10;;;8.20;99.90;;;;;;5005704;28;20479;-62
2023/12/18 03:45:30;;;;;;;21.37;15.70;;;8.20;99.90;;;;;;5006300;28;20579;-62
2023/12/18 03:47:58;;;;;;;21.00;14.93;;;8.20;99.90;;;;;;5008216;28;20969;-62
2023/12/18 03:50:27;;;;;;;18.50;14.33;;;8.20;99.90;;;;;;5006911;28;21031;-62
2023/12/18 03:52:55;;;;;;;21.20;15.00;;;8.20;99.90;;;;;;5006209;28;20464;-62
2023/12/18 03:55:23;;;;;;;22.70;15.20;;;8.20;99.90;;;;;;5004756;28;21084;-62
2023/12/18 03:57:51;;;;;;;21.27;16.17;;;8.20;99.90;;;;;;5006373;28;20563;-62
2023/12/18 04:00:20;;;;;;;29.27;16.53;;;8.20;99.90;;;;;;5005323;28;20484;-62
2023/12/18 04:02:48;;;;;;;25.53;16.70;;;8.20;99.90;;;;;;5003864;28;20488;-61
2023/12/18 04:05:16;;;;;;;21.97;14.80;;;8.20;99.90;;;;;;5005344;28;20951;-62
2023/12/18 04:07:46;;;;;;;24.60;15.63;;;8.10;99.90;;;;;;5004091;28;20488;-62
2023/12/18 04:10:14;;;;;;;21.07;15.50;;;8.10;99.90;;;;;;5005849;28;20476;-62
2023/12/18 04:12:42;;;;;;;23.23;15.77;;;8.10;99.90;;;;;;5004268;28;20564;-62
2023/12/18 04:15:11;;;;;;;25.80;15.60;;;8.10;99.90;;;;;;5006347;28;20487;-62
2023/12/18 04:17:39;;;;;;;18.77;14.77;;;8.10;99.90;;;;;;5007327;28;20468;-62
2023/12/18 04:20:09;;;;;;;28.50;17.03;;;8.10;99.90;;;;;;5003984;28;20478;-63
2023/12/18 04:22:37;;;;;;;21.50;15.53;;;8.10;99.90;;;;;;5002773;28;20484;-62
2023/12/18 04:25:07;;;;;;;20.10;14.80;;;8.10;99.90;;;;;;5005668;28;20608;-62
2023/12/18 04:27:35;;;;;;;18.93;15.17;;;8.10;99.90;;;;;;5005704;28;20488;-62
2023/12/18 04:30:02;;;;;;;19.90;15.30;;;8.10;99.90;;;;;;5007681;28;20559;-62
2023/12/18 04:32:31;;;;;;;19.43;15.23;;;8.10;99.90;;;;;;5003468;28;20476;-62
2023/12/18 04:34:59;;;;;;;16.70;14.20;;;8.10;99.90;;;;;;5005788;28;20480;-62
2023/12/18 04:37:27;;;;;;;22.80;16.37;;;8.10;99.90;;;;;;5005390;28;20469;-61
2023/12/18 04:39:55;;;;;;;19.73;15.80;;;8.10;99.90;;;;;;5002331;28;20515;-62
2023/12/18 04:42:25;;;;;;;21.90;17.03;;;8.10;99.90;;;;;;5003905;28;20484;-62
2023/12/18 04:44:53;;;;;;;20.67;16.60;;;8.10;99.90;;;;;;5005467;28;20484;-62
2023/12/18 04:47:21;;;;;;;22.20;16.13;;;8.10;99.90;;;;;;5005465;28;20932;-61
2023/12/18 04:49:49;;;;;;;19.83;15.63;;;8.00;99.90;;;;;;5004816;28;20483;-61
2023/12/18 04:52:17;;;;;;;25.53;16.60;;;8.10;99.90;;;;;;5004667;28;20472;-62
2023/12/18 04:54:45;;;;;;;24.20;17.13;;;8.10;99.90;;;;;;5002979;28;20483;-62
2023/12/18 04:57:13;;;;;;;24.77;16.70;;;8.10;99.90;;;;;;5004507;28;20526;-62
2023/12/18 04:59:43;;;;;;;25.37;17.57;;;8.10;99.90;;;;;;5005713;28;21002;-62
2023/12/18 05:02:10;;;;;;;25.00;17.20;;;8.10;99.90;;;;;;5003936;28;20474;-62
2023/12/18 05:04:38;;;;;;;18.83;16.60;;;8.10;99.90;;;;;;5004864;28;21128;-62
2023/12/18 05:07:07;;;;;;;26.90;18.07;;;8.00;99.90;;;;;;5004095;28;20587;-62
2023/12/18 05:09:38;;;;;;;25.10;18.07;;;8.00;99.90;;;;;;5000263;28;20563;-62
2023/12/18 05:12:06;;;;;;;24.77;18.63;;;8.00;99.90;;;;;;5003914;28;21146;-62
2023/12/18 05:14:35;;;;;;;26.43;19.70;;;8.00;99.90;;;;;;5005186;28;20547;-62
2023/12/18 05:17:04;;;;;;;26.23;17.90;;;8.00;99.90;;;;;;5003833;28;20604;-62
2023/12/18 05:19:32;;;;;;;29.80;19.90;;;8.00;99.90;;;;;;5005047;28;20510;-62
2023/12/18 05:22:00;;;;;;;25.73;18.80;;;8.00;99.90;;;;;;5003491;28;20491;-62
2023/12/18 05:24:28;;;;;;;26.33;19.90;;;8.00;99.90;;;;;;5003911;28;20591;-62
2023/12/18 05:26:56;;;;;;;21.10;17.53;;;8.00;99.90;;;;;;5004617;28;21016;-62
2023/12/18 05:29:24;;;;;;;26.37;19.10;;;8.00;99.90;;;;;;5004098;28;20469;-62
2023/12/18 05:31:52;;;;;;;25.50;18.73;;;8.00;99.90;;;;;;5002931;28;20480;-62
2023/12/18 05:34:21;;;;;;;25.47;19.57;;;7.90;99.90;;;;;;5003690;28;20479;-62
2023/12/18 05:36:49;;;;;;;26.63;20.13;;;7.90;99.90;;;;;;5005827;28;21063;-62
2023/12/18 05:39:18;;;;;;;26.93;18.77;;;7.90;99.90;;;;;;5003539;28;20503;-62
2023/12/18 05:41:46;;;;;;;26.93;19.00;;;7.90;99.90;;;;;;4998564;28;20471;-62
2023/12/18 05:44:14;;;;;;;27.67;19.00;;;7.90;99.90;;;;;;5000322;28;21100;-62
2023/12/18 05:46:42;;;;;;;26.10;18.33;;;7.90;99.90;;;;;;5002208;28;20524;-62
2023/12/18 05:49:10;;;;;;;22.60;19.10;;;7.90;99.90;;;;;;5003281;28;20555;-63
2023/12/18 05:51:40;;;;;;;27.30;18.77;;;7.90;99.90;;;;;;5001288;28;20526;-63
2023/12/18 05:54:08;;;;;;;25.10;19.60;;;7.90;99.90;;;;;;5003511;28;21008;-62
2023/12/18 05:56:36;;;;;;;27.10;21.13;;;7.90;99.90;;;;;;4999380;28;20913;-62
2023/12/18 05:59:04;;;;;;;23.33;18.63;;;7.90;99.90;;;;;;5000093;28;20577;-63
2023/12/18 06:01:32;;;;;;;24.63;20.10;;;7.90;99.90;;;;;;4994291;28;20552;-63
2023/12/18 06:04:00;;;;;;;29.40;21.13;;;7.90;99.90;;;;;;5000063;28;20471;-62
2023/12/18 06:06:28;;;;;;;26.93;19.70;;;7.90;99.90;;;;;;5004807;28;20496;-63
2023/12/18 06:08:58;;;;;;;31.57;21.03;;;7.90;99.90;;;;;;5004229;28;20488;-62
2023/12/18 06:11:26;;;;;;;27.03;19.70;;;7.90;99.90;;;;;;4998597;28;20935;-62
2023/12/18 06:13:54;;;;;;;28.83;20.53;;;7.90;99.90;;;;;;5000183;28;20503;-62
2023/12/18 06:16:22;;;;;;;27.27;21.33;;;7.90;99.90;;;;;;4998173;28;20500;-62
2023/12/18 06:18:50;;;;;;;27.93;20.60;;;7.90;99.90;;;;;;4992124;28;20467;-62
2023/12/18 06:21:19;;;;;;;29.00;21.77;;;7.90;99.90;;;;;;4995581;28;21328;-62
2023/12/18 06:23:47;;;;;;;27.90;20.97;;;8.00;99.90;;;;;;5002956;28;20479;-62
2023/12/18 06:26:16;;;;;;;28.67;21.40;;;8.00;99.90;;;;;;4999581;28;20484;-61
2023/12/18 06:28:44;;;;;;;27.80;22.27;;;8.00;99.90;;;;;;4985933;28;22622;-62
2023/12/18 06:31:12;;;;;;;28.83;22.37;;;8.00;99.90;;;;;;4982274;28;20466;-62
2023/12/18 06:33:40;;;;;;;31.10;21.63;;;7.90;99.90;;;;;;4976778;28;20496;-61
2023/12/18 06:36:09;;;;;;;31.17;22.10;;;7.90;99.90;;;;;;4987413;28;20954;-62
2023/12/18 06:38:37;;;;;;;33.80;22.70;;;7.90;99.90;;;;;;4993971;28;20491;-61
2023/12/18 06:41:05;;;;;;;31.03;22.27;;;7.90;99.90;;;;;;4990904;28;21020;-62
2023/12/18 06:43:34;;;;;;;32.40;21.83;;;7.90;99.90;;;;;;4978709;28;20495;-62
2023/12/18 06:46:02;;;;;;;31.40;21.07;;;8.00;99.90;;;;;;4992989;28;21043;-62
2023/12/18 06:48:30;;;;;;;31.90;22.93;;;8.00;99.90;;;;;;4990385;28;20655;-63
2023/12/18 06:50:58;;;;;;;35.10;22.50;;;7.90;99.90;;;;;;4986633;28;20869;-62
2023/12/18 06:53:26;;;;;;;33.70;22.87;;;7.90;99.90;;;;;;4995691;28;20508;-62
2023/12/18 06:55:56;;;;;;;31.40;22.07;;;7.90;99.90;;;;;;5005112;28;20498;-60
2023/12/18 06:58:24;;;;;;;34.97;23.00;;;7.90;99.90;;;;;;5005419;28;21324;-63
2023/12/18 07:00:53;;;;;;;34.07;22.60;;;7.90;99.90;;;;;;5005577;28;20483;-63
2023/12/18 07:03:21;;;;;;;33.03;21.93;;;7.90;99.90;;;;;;5003332;28;20533;-63
2023/12/18 07:05:49;;;;;;;31.70;22.30;;;7.90;99.90;;;;;;5002557;28;23696;-62
2023/12/18 07:08:17;;;;;;;32.77;22.23;;;7.90;99.90;;;;;;5002955;28;20499;-62
2023/12/18 07:10:46;;;;;;;32.17;22.30;;;8.00;99.90;;;;;;4999364;28;20499;-63
2023/12/18 07:13:15;;;;;;;31.70;23.37;;;8.00;99.90;;;;;;4988285;28;20980;-61
2023/12/18 07:15:43;;;;;;;30.70;21.43;;;8.00;99.90;;;;;;4985539;28;20535;-64
2023/12/18 07:18:13;;;;;;;34.70;22.00;;;8.00;99.90;;;;;;4987958;28;20498;-64
2023/12/18 07:20:43;;;;;;;33.33;22.30;;;8.00;99.90;;;;;;4992893;28;20476;-61
2023/12/18 07:23:12;;;;;;;33.93;22.63;;;7.90;99.90;;;;;;4985806;28;20891;-61
2023/12/18 07:25:40;;;;;;;33.80;23.63;;;8.00;99.90;;;;;;4991067;28;20484;-63
2023/12/18 07:28:09;;;;;;;31.90;23.90;;;8.00;99.90;;;;;;4990165;28;21772;-64
2023/12/18 07:30:38;;;;;;;34.87;22.53;;;8.00;99.90;;;;;;4989265;28;20505;-63
2023/12/18 07:33:07;;;;;;;34.43;23.27;;;8.00;99.90;;;;;;4995812;28;20567;-63
2023/12/18 07:35:37;;;;;;;41.37;24.27;;;8.00;99.90;;;;;;4999980;28;21890;-63
2023/12/18 07:38:05;;;;;;;34.63;22.87;;;8.00;99.90;;;;;;4997375;28;20480;-63
2023/12/18 07:40:33;;;;;;;36.00;24.23;;;8.00;99.90;;;;;;5004023;28;20553;-64
2023/12/18 07:43:01;;;;;;;32.70;21.90;;;7.90;99.90;;;;;;4999705;28;20569;-63
2023/12/18 07:45:29;;;;;;;34.50;22.20;;;8.00;99.90;;;;;;4998725;28;20496;-63
2023/12/18 07:47:57;;;;;;;37.80;24.17;;;8.00;99.90;;;;;;5000299;28;20500;-64
2023/12/18 07:50:25;;;;;;;36.43;24.37;;;8.00;99.90;;;;;;4997124;28;20980;-63
2023/12/18 07:52:54;;;;;;;37.57;25.30;;;7.90;99.90;;;;;;5000468;28;20558;-63
2023/12/18 07:55:22;;;;;;;34.03;24.30;;;8.00;99.90;;;;;;5000246;28;20956;-63
2023/12/18 07:57:50;;;;;;;35.97;23.90;;;8.00;99.90;;;;;;5002867;28;20792;-63
2023/12/18 08:00:19;;;;;;;37.33;24.37;;;8.00;99.90;;;;;;4998531;28;20571;-62
2023/12/18 08:02:47;;;;;;;36.80;24.20;;;8.00;99.90;;;;;;5001558;28;20465;-63
2023/12/18 08:05:15;;;;;;;34.07;23.37;;;8.00;99.90;;;;;;5000259;28;20550;-64
2023/12/18 08:07:43;;;;;;;36.10;23.87;;;8.00;99.90;;;;;;5005539;28;20486;-63
2023/12/18 08:10:13;;;;;;;35.83;24.07;;;7.90;99.90;;;;;;4996322;28;20550;-63
2023/12/18 08:12:41;;;;;;;34.57;23.10;;;8.00;99.90;;;;;;5002284;28;20471;-63
2023/12/18 08:15:10;;;;;;;34.20;23.27;;;7.90;99.90;;;;;;4999286;28;20910;-63
2023/12/18 08:17:39;;;;;;;35.80;23.60;;;7.90;99.90;;;;;;5000158;28;20965;-63
2023/12/18 08:20:08;;;;;;;36.17;24.87;;;7.90;99.90;;;;;;5005106;28;20471;-63
2023/12/18 08:22:36;;;;;;;38.77;25.63;;;7.90;99.90;;;;;;5001189;28;20603;-63
2023/12/18 08:25:04;;;;;;;38.37;24.90;;;7.90;99.90;;;;;;4997974;28;20516;-63
2023/12/18 08:27:34;;;;;;;38.80;25.00;;;7.90;99.90;;;;;;5003014;28;20563;-64
2023/12/18 08:30:04;;;;;;;48.80;25.63;;;7.90;99.90;;;;;;5000326;28;20578;-63
2023/12/18 08:32:32;;;;;;;40.73;25.47;;;7.90;99.90;;;;;;4998414;28;20468;-64
2023/12/18 08:35:01;;;;;;;37.10;24.30;;;7.90;99.90;;;;;;4998623;28;20593;-63
2023/12/18 08:37:29;;;;;;;42.27;26.07;;;7.90;99.90;;;;;;4995360;28;20563;-64
2023/12/18 08:39:57;;;;;;;40.90;25.17;;;7.80;99.90;;;;;;5000701;28;20546;-63
2023/12/18 08:42:25;;;;;;;37.97;25.40;;;7.90;99.90;;;;;;4997814;28;20476;-62
2023/12/18 08:44:55;;;;;;;36.83;24.50;;;7.80;99.90;;;;;;4996332;28;20512;-63
2023/12/18 08:47:25;;;;;;;37.37;24.87;;;7.80;99.90;;;;;;5001901;28;20499;-63
2023/12/18 08:49:53;;;;;;;34.73;23.30;;;7.90;99.90;;;;;;4996391;28;20634;-63
2023/12/18 08:52:21;;;;;;;38.20;24.30;;;7.90;99.90;;;;;;5001184;28;20504;-63
2023/12/18 08:54:49;;;;;;;43.93;24.47;;;7.90;99.90;;;;;;4998273;28;21053;-62
2023/12/18 08:57:17;;;;;;;38.77;25.50;;;7.90;99.90;;;;;;5000832;28;20559;-63
2023/12/18 08:59:45;;;;;;;42.00;23.80;;;7.90;99.90;;;;;;5000834;28;20484;-63
2023/12/18 09:02:15;;;;;;;44.33;25.80;;;7.90;99.90;;;;;;4999818;28;20473;-63
2023/12/18 09:04:43;;;;;;;44.60;25.97;;;7.80;99.90;;;;;;4998725;28;20527;-64
2023/12/18 09:07:11;;;;;;;47.73;25.23;;;7.80;99.90;;;;;;4996082;28;20492;-62
2023/12/18 09:09:39;;;;;;;48.00;27.00;;;7.80;99.90;;;;;;4997460;28;20548;-64
2023/12/18 09:12:08;;;;;;;37.20;25.00;;;7.80;99.90;;;;;;5000466;28;20507;-63
2023/12/18 09:14:37;;;;;;;46.73;28.50;;;7.80;99.90;;;;;;4995744;28;20476;-63
2023/12/18 09:17:05;;;;;;;43.30;25.97;;;7.80;99.90;;;;;;4994837;28;20490;-63
2023/12/18 09:19:34;;;;;;;41.10;24.70;;;7.80;99.90;;;;;;4989909;28;20464;-63
2023/12/18 09:22:02;;;;;;;38.93;25.87;;;7.80;99.90;;;;;;4994777;28;20476;-62
2023/12/18 09:24:33;;;;;;;39.53;25.63;;;7.80;99.90;;;;;;4991684;28;20487;-63
2023/12/18 09:27:02;;;;;;;39.73;24.97;;;7.80;99.90;;;;;;4994625;28;20492;-63
2023/12/18 09:29:30;;;;;;;45.70;26.20;;;7.80;99.90;;;;;;4996990;28;20491;-63
2023/12/18 09:31:58;;;;;;;40.33;24.87;;;7.80;99.90;;;;;;4980245;28;20619;-63
2023/12/18 09:34:26;;;;;;;37.33;25.27;;;7.90;99.90;;;;;;4977971;28;20496;-64
2023/12/18 09:36:56;;;;;;;42.87;25.20;;;7.90;99.90;;;;;;4981081;28;21044;-63
2023/12/18 09:39:24;;;;;;;48.03;25.77;;;7.90;99.90;;;;;;4980375;28;20471;-63
2023/12/18 09:41:52;;;;;;;38.93;23.80;;;7.90;99.90;;;;;;4986210;28;20483;-63
2023/12/18 09:44:20;;;;;;;38.70;24.37;;;7.90;99.90;;;;;;4982752;28;20860;-62
2023/12/18 09:46:48;;;;;;;46.77;27.63;;;7.90;99.90;;;;;;4988720;28;20591;-63
2023/12/18 09:49:16;;;;;;;47.10;26.67;;;7.90;99.90;;;;;;4990822;28;20584;-63
2023/12/18 09:51:47;;;;;;;37.67;25.17;;;7.90;99.90;;;;;;4980550;28;20479;-63
2023/12/18 09:54:17;;;;;;;39.63;24.47;;;7.80;99.90;;;;;;4994996;28;21246;-63
2023/12/18 09:56:48;;;;;;;38.27;24.40;;;7.90;99.90;;;;;;4986638;28;20584;-63
2023/12/18 09:59:17;;;;;;;43.90;25.60;;;7.90;99.90;;;;;;4991194;28;20461;-63
2023/12/18 10:01:45;;;;;;;39.63;25.43;;;7.90;99.90;;;;;;4988141;28;20496;-63
2023/12/18 10:04:14;;;;;;;44.50;23.57;;;7.90;99.90;;;;;;4986027;28;20488;-63
2023/12/18 10:06:42;;;;;;;41.50;25.00;;;7.90;99.90;;;;;;4991579;28;20619;-63
2023/12/18 10:09:14;;;;;;;36.13;23.90;;;7.90;99.90;;;;;;4993112;28;20472;-62
2023/12/18 10:11:45;;;;;;;33.50;23.20;;;8.00;99.90;;;;;;4996177;28;22543;-63
2023/12/18 10:14:13;;;;;;;36.90;23.13;;;8.00;99.90;;;;;;4995760;28;20497;-63
2023/12/18 10:16:42;;;;;;;41.80;23.83;;;8.00;99.90;;;;;;4986508;28;20524;-63
2023/12/18 10:19:11;;;;;;;33.80;24.30;;;8.00;99.90;;;;;;4988882;28;20482;-64
2023/12/18 10:21:39;;;;;;;37.60;23.30;;;8.00;99.90;;;;;;4990230;28;20476;-63
2023/12/18 10:24:09;;;;;;;36.70;24.07;;;8.00;99.90;;;;;;4996286;28;21111;-63
2023/12/18 10:26:37;;;;;;;39.47;22.73;;;8.10;99.90;;;;;;4988797;28;20498;-63
2023/12/18 10:29:07;;;;;;;42.63;24.97;;;8.10;99.90;;;;;;4993460;28;25352;-63
2023/12/18 10:31:35;;;;;;;38.27;24.10;;;8.10;99.90;;;;;;4989545;28;20540;-63
2023/12/18 10:34:05;;;;;;;37.50;23.70;;;8.10;99.90;;;;;;4984470;28;20502;-63
2023/12/18 10:36:33;;;;;;;33.77;23.13;;;8.10;99.90;;;;;;4985755;28;20503;-63
2023/12/18 10:39:03;;;;;;;37.00;22.37;;;8.10;99.90;;;;;;4998323;28;20562;-63
2023/12/18 10:41:36;;;;;;;31.03;21.80;;;8.20;99.90;;;;;;4989254;28;20471;-63
2023/12/18 10:44:08;;;;;;;36.97;22.27;;;8.10;99.90;;;;;;5000758;28;20575;-63
2023/12/18 10:46:37;;;;;;;33.50;23.00;;;8.10;99.90;;;;;;4997030;28;20880;-63
2023/12/18 10:49:06;;;;;;;34.17;21.40;;;8.20;99.90;;;;;;4993003;28;20578;-63
2023/12/18 10:51:36;;;;;;;32.27;22.03;;;8.10;99.90;;;;;;4982489;28;21435;-63
2023/12/18 10:54:06;;;;;;;33.37;22.90;;;8.10;99.90;;;;;;4989033;28;20488;-62
2023/12/18 10:56:37;;;;;;;34.83;21.77;;;8.20;99.90;;;;;;4995673;28;20500;-63
2023/12/18 10:59:07;;;;;;;36.20;23.20;;;8.20;99.90;;;;;;4991971;28;20476;-62
2023/12/18 11:01:36;;;;;;;27.90;21.33;;;8.20;99.90;;;;;;4992304;28;20555;-62
2023/12/18 11:04:04;;;;;;;44.43;22.90;;;8.20;99.90;;;;;;5001139;28;20479;-63
2023/12/18 11:06:34;;;;;;;31.33;23.33;;;8.20;99.90;;;;;;4996069;28;20605;-62
2023/12/18 11:09:03;;;;;;;34.70;22.13;;;8.20;99.90;;;;;;4989882;28;20896;-62
2023/12/18 11:11:33;;;;;;;34.67;23.57;;;8.20;99.90;;;;;;4992475;28;20624;-63
2023/12/18 11:14:14;;;;;;;33.30;22.77;;;8.20;99.90;;;;;;4996744;28;21331;-62
2023/12/18 11:16:59;;;;;;;39.63;25.70;;;8.20;99.90;;;;;;4999506;28;20862;-63
2023/12/18 11:19:35;;;;;;;31.20;23.10;;;8.20;99.90;;;;;;4992325;28;20991;-62
2023/12/18 11:22:04;;;;;;;34.93;21.73;;;8.20;99.90;;;;;;4980082;28;20600;-63
2023/12/18 11:24:37;;;;;;;37.87;22.60;;;8.20;99.90;;;;;;4993286;28;20580;-63
2023/12/18 11:27:06;;;;;;;37.23;24.43;;;8.20;99.90;;;;;;4988983;28;20488;-62
2023/12/18 11:29:43;;;;;;;36.00;22.20;;;8.20;99.90;;;;;;4993652;28;21998;-63
2023/12/18 11:32:13;;;;;;;36.23;23.17;;;8.20;99.90;;;;;;4988097;28;20475;-62
2023/12/18 11:34:42;;;;;;;32.30;21.63;;;8.20;99.90;;;;;;4994752;28;20502;-63
2023/12/18 11:37:13;;;;;;;33.53;22.50;;;8.20;99.90;;;;;;4995054;28;20503;-63
2023/12/18 11:39:41;;;;;;;34.47;22.87;;;8.20;99.90;;;;;;4991119;28;20566;-63
2023/12/18 11:42:11;;;;;;;37.30;23.87;;;8.20;99.90;;;;;;4991962;28;21265;-62
2023/12/18 11:44:41;;;;;;;33.53;23.30;;;8.20;99.90;;;;;;4990672;28;20492;-63
2023/12/18 11:47:09;;;;;;;31.00;22.67;;;8.20;99.90;;;;;;4996155;28;20500;-64
2023/12/18 11:49:37;;;;;;;36.80;22.67;;;8.20;99.90;;;;;;4994452;28;20486;-62
2023/12/18 11:52:20;;;;;;;38.93;23.00;;;8.10;99.90;;;;;;4991814;28;20638;-62
2023/12/18 11:54:49;;;;;;;33.83;21.57;;;8.20;99.90;;;;;;4990680;28;20559;-64
2023/12/18 11:57:21;;;;;;;35.30;22.73;;;8.20;99.90;;;;;;4984603;28;20472;-64
2023/12/18 11:59:51;;;;;;;36.00;23.07;;;8.20;99.90;;;;;;4980374;28;20492;-63
2023/12/18 12:02:21;;;;;;;36.53;23.30;;;8.20;99.90;;;;;;4984705;28;20560;-63
2023/12/18 12:04:51;;;;;;;33.10;22.37;;;8.20;99.90;;;;;;4989446;28;20620;-64
2023/12/18 12:07:19;;;;;;;32.80;21.77;;;8.20;99.90;;;;;;4993815;28;21088;-62
2023/12/18 12:09:58;;;;;;;36.90;22.43;;;8.20;99.90;;;;;;4984633;28;20479;-61
2023/12/18 12:12:26;;;;;;;33.63;22.70;;;8.20;99.90;;;;;;4987190;28;20955;-63
2023/12/18 12:14:59;;;;;;;37.83;23.90;;;8.20;99.90;;;;;;4980570;28;20495;-62
2023/12/18 12:17:27;;;;;;;29.47;21.30;;;8.20;99.90;;;;;;4987626;28;20583;-64
2023/12/18 12:19:55;;;;;;;40.20;23.57;;;8.20;99.90;;;;;;5001252;28;20855;-63
2023/12/18 12:22:24;;;;;;;31.20;21.07;;;8.20;99.90;;;;;;4992185;28;20977;-62
2023/12/18 12:24:52;;;;;;;31.00;21.70;;;8.20;99.90;;;;;;4979409;28;20928;-62
2023/12/18 12:27:20;;;;;;;34.87;23.33;;;8.20;99.90;;;;;;4983039;28;20483;-63
2023/12/18 12:29:48;;;;;;;36.00;21.70;;;8.20;99.90;;;;;;4978862;28;20471;-61
2023/12/18 12:32:19;;;;;;;31.67;21.73;;;8.20;99.90;;;;;;4984325;28;21068;-62
2023/12/18 12:34:47;;;;;;;34.27;20.90;;;8.20;99.90;;;;;;4983307;28;21092;-61
2023/12/18 12:37:16;;;;;;;34.00;22.60;;;8.20;99.90;;;;;;4989202;28;20515;-63
2023/12/18 12:39:58;;;;;;;29.30;21.60;;;8.20;99.90;;;;;;4981037;28;20487;-63
2023/12/18 12:42:27;;;;;;;35.90;21.67;;;8.30;99.90;;;;;;4985093;28;20464;-62